sensor_id;sensor_type;location;lat;lon;timestamp;P1;durP1;ratioP1;P2;durP2;ratioP2
18265;SDS011;9259;48.194;16.322;2023-11-21T00:01:15;5.50;;;1.53;;
18265;SDS011;9259;48.194;16.322;2023-11-21T00:03:43;10.43;;;1.50;;
18265;SDS011;9259;48.194;16.322;2023-11-21T00:06:11;4.83;;;1.20;;
18265;SDS011;9259;48.194;16.322;2023-11-21T00:08:40;4.40;;;1.40;;
18265;SDS011;9259;48.194;16.322;2023-11-21T00:11:10;4.77;;;1.20;;
18265;SDS011;9259;48.194;16.322;2023-11-21T00:13:38;6.67;;;1.63;;
18265;SDS011;9259;48.194;16.322;2023-11-21T00:16:06;5.73;;;1.60;;
18265;SDS011;9259;48.194;16.322;2023-11-21T00:18:34;6.60;;;1.10;;
18265;SDS011;9259;48.194;16.322;2023-11-21T00:21:02;11.87;;;1.43;;
18265;SDS011;9259;48.194;16.322;2023-11-21T00:23:31;8.93;;;1.47;;
18265;SDS011;9259;48.194;16.322;2023-11-21T00:25:59;3.80;;;1.17;;
18265;SDS011;9259;48.194;16.322;2023-11-21T00:28:28;5.27;;;1.47;;
18265;SDS011;9259;48.194;16.322;2023-11-21T00:30:56;7.67;;;1.70;;
18265;SDS011;9259;48.194;16.322;2023-11-21T00:33:24;8.03;;;1.50;;
18265;SDS011;9259;48.194;16.322;2023-11-21T00:35:53;7.93;;;2.10;;
18265;SDS011;9259;48.194;16.322;2023-11-21T00:38:21;6.77;;;1.60;;
18265;SDS011;9259;48.194;16.322;2023-11-21T00:40:49;7.53;;;1.70;;
18265;SDS011;9259;48.194;16.322;2023-11-21T00:43:18;8.53;;;2.17;;
18265;SDS011;9259;48.194;16.322;2023-11-21T00:45:48;5.80;;;1.40;;
18265;SDS011;9259;48.194;16.322;2023-11-21T00:48:16;8.70;;;1.90;;
18265;SDS011;9259;48.194;16.322;2023-11-21T00:50:44;7.40;;;1.80;;
18265;SDS011;9259;48.194;16.322;2023-11-21T00:53:13;7.87;;;1.30;;
18265;SDS011;9259;48.194;16.322;2023-11-21T00:55:41;9.97;;;1.77;;
18265;SDS011;9259;48.194;16.322;2023-11-21T00:58:09;5.97;;;1.37;;
18265;SDS011;9259;48.194;16.322;2023-11-21T01:00:37;5.73;;;1.53;;
18265;SDS011;9259;48.194;16.322;2023-11-21T01:03:07;6.23;;;1.43;;
18265;SDS011;9259;48.194;16.322;2023-11-21T01:05:35;7.90;;;1.57;;
18265;SDS011;9259;48.194;16.322;2023-11-21T01:08:03;7.57;;;1.47;;
18265;SDS011;9259;48.194;16.322;2023-11-21T01:10:32;7.47;;;1.70;;
18265;SDS011;9259;48.194;16.322;2023-11-21T01:13:00;5.97;;;1.87;;
18265;SDS011;9259;48.194;16.322;2023-11-21T01:15:29;11.30;;;1.63;;
18265;SDS011;9259;48.194;16.322;2023-11-21T01:17:57;7.30;;;1.83;;
18265;SDS011;9259;48.194;16.322;2023-11-21T01:20:27;9.30;;;1.70;;
18265;SDS011;9259;48.194;16.322;2023-11-21T01:22:55;7.70;;;1.70;;
18265;SDS011;9259;48.194;16.322;2023-11-21T01:25:23;8.47;;;2.23;;
18265;SDS011;9259;48.194;16.322;2023-11-21T01:27:51;9.37;;;1.67;;
18265;SDS011;9259;48.194;16.322;2023-11-21T01:30:19;8.60;;;2.30;;
18265;SDS011;9259;48.194;16.322;2023-11-21T01:32:47;8.60;;;2.00;;
18265;SDS011;9259;48.194;16.322;2023-11-21T01:35:16;8.90;;;1.70;;
18265;SDS011;9259;48.194;16.322;2023-11-21T01:37:45;7.20;;;1.83;;
18265;SDS011;9259;48.194;16.322;2023-11-21T01:40:13;5.07;;;1.67;;
18265;SDS011;9259;48.194;16.322;2023-11-21T01:42:42;7.87;;;1.67;;
18265;SDS011;9259;48.194;16.322;2023-11-21T01:45:12;4.47;;;1.30;;
18265;SDS011;9259;48.194;16.322;2023-11-21T01:47:40;7.83;;;1.70;;
18265;SDS011;9259;48.194;16.322;2023-11-21T01:50:09;5.23;;;1.70;;
18265;SDS011;9259;48.194;16.322;2023-11-21T01:52:42;8.43;;;1.80;;
18265;SDS011;9259;48.194;16.322;2023-11-21T01:55:12;10.37;;;2.40;;
18265;SDS011;9259;48.194;16.322;2023-11-21T01:57:43;5.03;;;1.70;;
18265;SDS011;9259;48.194;16.322;2023-11-21T02:00:12;9.40;;;2.00;;
18265;SDS011;9259;48.194;16.322;2023-11-21T02:02:45;11.17;;;1.40;;
18265;SDS011;9259;48.194;16.322;2023-11-21T02:05:13;5.27;;;1.30;;
18265;SDS011;9259;48.194;16.322;2023-11-21T02:07:43;5.63;;;1.80;;
18265;SDS011;9259;48.194;16.322;2023-11-21T02:10:13;9.63;;;1.70;;
18265;SDS011;9259;48.194;16.322;2023-11-21T02:12:42;11.37;;;1.80;;
18265;SDS011;9259;48.194;16.322;2023-11-21T02:15:11;4.77;;;1.30;;
18265;SDS011;9259;48.194;16.322;2023-11-21T02:17:44;8.13;;;1.57;;
18265;SDS011;9259;48.194;16.322;2023-11-21T02:20:12;7.17;;;1.37;;
18265;SDS011;9259;48.194;16.322;2023-11-21T02:22:41;4.70;;;1.30;;
18265;SDS011;9259;48.194;16.322;2023-11-21T02:25:11;8.70;;;1.47;;
18265;SDS011;9259;48.194;16.322;2023-11-21T02:27:39;5.33;;;1.43;;
18265;SDS011;9259;48.194;16.322;2023-11-21T02:30:09;8.73;;;1.60;;
18265;SDS011;9259;48.194;16.322;2023-11-21T02:32:39;14.50;;;1.60;;
18265;SDS011;9259;48.194;16.322;2023-11-21T02:35:08;5.97;;;1.47;;
18265;SDS011;9259;48.194;16.322;2023-11-21T02:37:37;4.37;;;1.70;;
18265;SDS011;9259;48.194;16.322;2023-11-21T02:40:08;6.93;;;1.73;;
18265;SDS011;9259;48.194;16.322;2023-11-21T02:42:39;7.77;;;1.73;;
18265;SDS011;9259;48.194;16.322;2023-11-21T02:45:07;7.33;;;1.70;;
18265;SDS011;9259;48.194;16.322;2023-11-21T02:47:38;3.13;;;1.37;;
18265;SDS011;9259;48.194;16.322;2023-11-21T02:50:07;7.10;;;1.77;;
18265;SDS011;9259;48.194;16.322;2023-11-21T02:52:35;4.23;;;1.63;;
18265;SDS011;9259;48.194;16.322;2023-11-21T02:55:03;14.93;;;1.87;;
18265;SDS011;9259;48.194;16.322;2023-11-21T02:57:34;8.00;;;1.83;;
18265;SDS011;9259;48.194;16.322;2023-11-21T03:00:02;9.27;;;2.00;;
18265;SDS011;9259;48.194;16.322;2023-11-21T03:02:33;8.37;;;2.07;;
18265;SDS011;9259;48.194;16.322;2023-11-21T03:05:02;6.33;;;2.07;;
18265;SDS011;9259;48.194;16.322;2023-11-21T03:07:31;10.63;;;2.47;;
18265;SDS011;9259;48.194;16.322;2023-11-21T03:09:59;7.60;;;1.70;;
18265;SDS011;9259;48.194;16.322;2023-11-21T03:12:27;9.30;;;1.70;;
18265;SDS011;9259;48.194;16.322;2023-11-21T03:14:56;9.47;;;2.07;;
18265;SDS011;9259;48.194;16.322;2023-11-21T03:17:24;5.43;;;1.70;;
18265;SDS011;9259;48.194;16.322;2023-11-21T03:19:52;7.03;;;1.70;;
18265;SDS011;9259;48.194;16.322;2023-11-21T03:22:20;5.27;;;1.37;;
18265;SDS011;9259;48.194;16.322;2023-11-21T03:24:49;7.40;;;1.60;;
18265;SDS011;9259;48.194;16.322;2023-11-21T03:27:17;5.47;;;1.27;;
18265;SDS011;9259;48.194;16.322;2023-11-21T03:29:45;5.87;;;1.37;;
18265;SDS011;9259;48.194;16.322;2023-11-21T03:32:14;7.17;;;1.73;;
18265;SDS011;9259;48.194;16.322;2023-11-21T03:34:52;3.70;;;1.30;;
18265;SDS011;9259;48.194;16.322;2023-11-21T03:37:22;9.07;;;1.50;;
18265;SDS011;9259;48.194;16.322;2023-11-21T03:39:50;5.97;;;1.47;;
18265;SDS011;9259;48.194;16.322;2023-11-21T03:42:18;4.47;;;1.50;;
18265;SDS011;9259;48.194;16.322;2023-11-21T03:44:46;11.07;;;1.37;;
18265;SDS011;9259;48.194;16.322;2023-11-21T03:47:15;7.13;;;1.53;;
18265;SDS011;9259;48.194;16.322;2023-11-21T03:49:45;7.97;;;1.53;;
18265;SDS011;9259;48.194;16.322;2023-11-21T03:52:13;7.10;;;1.57;;
18265;SDS011;9259;48.194;16.322;2023-11-21T03:54:41;4.43;;;1.57;;
18265;SDS011;9259;48.194;16.322;2023-11-21T03:57:09;12.13;;;1.73;;
18265;SDS011;9259;48.194;16.322;2023-11-21T03:59:39;9.77;;;1.63;;
18265;SDS011;9259;48.194;16.322;2023-11-21T04:02:08;9.07;;;2.00;;
18265;SDS011;9259;48.194;16.322;2023-11-21T04:04:37;7.37;;;1.67;;
18265;SDS011;9259;48.194;16.322;2023-11-21T04:07:05;6.50;;;1.50;;
18265;SDS011;9259;48.194;16.322;2023-11-21T04:09:33;3.73;;;1.30;;
18265;SDS011;9259;48.194;16.322;2023-11-21T04:12:02;5.87;;;1.40;;
18265;SDS011;9259;48.194;16.322;2023-11-21T04:14:30;7.67;;;1.70;;
18265;SDS011;9259;48.194;16.322;2023-11-21T04:16:58;5.40;;;1.30;;
18265;SDS011;9259;48.194;16.322;2023-11-21T04:19:26;7.40;;;1.50;;
18265;SDS011;9259;48.194;16.322;2023-11-21T04:21:55;5.37;;;1.50;;
18265;SDS011;9259;48.194;16.322;2023-11-21T04:24:23;7.30;;;1.57;;
18265;SDS011;9259;48.194;16.322;2023-11-21T04:26:51;5.67;;;1.43;;
18265;SDS011;9259;48.194;16.322;2023-11-21T04:29:20;7.80;;;1.50;;
18265;SDS011;9259;48.194;16.322;2023-11-21T04:31:48;7.63;;;2.40;;
18265;SDS011;9259;48.194;16.322;2023-11-21T04:34:16;10.00;;;2.17;;
18265;SDS011;9259;48.194;16.322;2023-11-21T04:36:44;8.13;;;1.80;;
18265;SDS011;9259;48.194;16.322;2023-11-21T04:39:13;8.30;;;1.80;;
18265;SDS011;9259;48.194;16.322;2023-11-21T04:41:41;6.17;;;1.80;;
18265;SDS011;9259;48.194;16.322;2023-11-21T04:44:09;9.77;;;1.73;;
18265;SDS011;9259;48.194;16.322;2023-11-21T04:46:37;8.60;;;1.63;;
18265;SDS011;9259;48.194;16.322;2023-11-21T04:49:05;6.63;;;1.40;;
18265;SDS011;9259;48.194;16.322;2023-11-21T04:51:34;10.07;;;1.67;;
18265;SDS011;9259;48.194;16.322;2023-11-21T04:54:02;3.53;;;1.50;;
18265;SDS011;9259;48.194;16.322;2023-11-21T04:56:32;5.83;;;1.70;;
18265;SDS011;9259;48.194;16.322;2023-11-21T04:59:00;7.80;;;1.70;;
18265;SDS011;9259;48.194;16.322;2023-11-21T05:01:30;4.40;;;1.83;;
18265;SDS011;9259;48.194;16.322;2023-11-21T05:03:58;5.63;;;2.07;;
18265;SDS011;9259;48.194;16.322;2023-11-21T05:06:26;5.40;;;1.63;;
18265;SDS011;9259;48.194;16.322;2023-11-21T05:08:54;11.87;;;2.07;;
18265;SDS011;9259;48.194;16.322;2023-11-21T05:11:25;8.47;;;1.90;;
18265;SDS011;9259;48.194;16.322;2023-11-21T05:13:54;4.87;;;1.40;;
18265;SDS011;9259;48.194;16.322;2023-11-21T05:16:25;7.70;;;1.80;;
18265;SDS011;9259;48.194;16.322;2023-11-21T05:18:54;9.23;;;2.20;;
18265;SDS011;9259;48.194;16.322;2023-11-21T05:21:26;7.17;;;1.90;;
18265;SDS011;9259;48.194;16.322;2023-11-21T05:23:55;7.03;;;2.13;;
18265;SDS011;9259;48.194;16.322;2023-11-21T05:26:23;4.43;;;1.50;;
18265;SDS011;9259;48.194;16.322;2023-11-21T05:28:51;8.40;;;2.10;;
18265;SDS011;9259;48.194;16.322;2023-11-21T05:31:20;7.10;;;1.80;;
18265;SDS011;9259;48.194;16.322;2023-11-21T05:33:48;6.43;;;2.03;;
18265;SDS011;9259;48.194;16.322;2023-11-21T05:36:17;5.13;;;1.93;;
18265;SDS011;9259;48.194;16.322;2023-11-21T05:38:45;8.30;;;1.70;;
18265;SDS011;9259;48.194;16.322;2023-11-21T05:41:13;8.47;;;2.63;;
18265;SDS011;9259;48.194;16.322;2023-11-21T05:43:42;8.77;;;1.97;;
18265;SDS011;9259;48.194;16.322;2023-11-21T05:46:10;8.77;;;1.87;;
18265;SDS011;9259;48.194;16.322;2023-11-21T05:48:40;8.67;;;1.70;;
18265;SDS011;9259;48.194;16.322;2023-11-21T05:51:08;8.57;;;1.80;;
18265;SDS011;9259;48.194;16.322;2023-11-21T05:53:38;8.60;;;1.93;;
18265;SDS011;9259;48.194;16.322;2023-11-21T05:56:06;10.60;;;1.93;;
18265;SDS011;9259;48.194;16.322;2023-11-21T05:58:35;10.03;;;1.60;;
18265;SDS011;9259;48.194;16.322;2023-11-21T06:01:05;8.60;;;2.00;;
18265;SDS011;9259;48.194;16.322;2023-11-21T06:03:34;8.67;;;1.77;;
18265;SDS011;9259;48.194;16.322;2023-11-21T06:06:04;10.90;;;2.30;;
18265;SDS011;9259;48.194;16.322;2023-11-21T06:08:33;7.97;;;2.37;;
18265;SDS011;9259;48.194;16.322;2023-11-21T06:11:01;11.87;;;2.77;;
18265;SDS011;9259;48.194;16.322;2023-11-21T06:13:29;10.53;;;2.00;;
18265;SDS011;9259;48.194;16.322;2023-11-21T06:15:57;8.27;;;2.83;;
18265;SDS011;9259;48.194;16.322;2023-11-21T06:18:26;11.33;;;2.13;;
18265;SDS011;9259;48.194;16.322;2023-11-21T06:20:54;10.73;;;2.50;;
18265;SDS011;9259;48.194;16.322;2023-11-21T06:23:23;9.40;;;2.60;;
18265;SDS011;9259;48.194;16.322;2023-11-21T06:25:51;8.43;;;2.03;;
18265;SDS011;9259;48.194;16.322;2023-11-21T06:28:19;9.87;;;2.27;;
18265;SDS011;9259;48.194;16.322;2023-11-21T06:30:47;7.60;;;2.47;;
18265;SDS011;9259;48.194;16.322;2023-11-21T06:33:16;10.17;;;2.43;;
18265;SDS011;9259;48.194;16.322;2023-11-21T06:35:44;8.57;;;2.50;;
18265;SDS011;9259;48.194;16.322;2023-11-21T06:38:12;9.53;;;2.43;;
18265;SDS011;9259;48.194;16.322;2023-11-21T06:40:41;18.23;;;2.67;;
18265;SDS011;9259;48.194;16.322;2023-11-21T06:43:10;11.40;;;2.27;;
18265;SDS011;9259;48.194;16.322;2023-11-21T06:45:40;9.63;;;2.43;;
18265;SDS011;9259;48.194;16.322;2023-11-21T06:48:08;13.43;;;2.80;;
18265;SDS011;9259;48.194;16.322;2023-11-21T06:50:40;10.13;;;2.00;;
18265;SDS011;9259;48.194;16.322;2023-11-21T06:53:08;12.53;;;2.70;;
18265;SDS011;9259;48.194;16.322;2023-11-21T06:55:36;10.00;;;2.30;;
18265;SDS011;9259;48.194;16.322;2023-11-21T06:58:06;7.83;;;2.03;;
18265;SDS011;9259;48.194;16.322;2023-11-21T07:00:34;9.20;;;2.13;;
18265;SDS011;9259;48.194;16.322;2023-11-21T07:03:02;12.13;;;2.80;;
18265;SDS011;9259;48.194;16.322;2023-11-21T07:05:30;9.00;;;2.33;;
18265;SDS011;9259;48.194;16.322;2023-11-21T07:07:58;8.07;;;1.83;;
18265;SDS011;9259;48.194;16.322;2023-11-21T07:10:30;6.77;;;2.13;;
18265;SDS011;9259;48.194;16.322;2023-11-21T07:12:58;10.20;;;2.40;;
18265;SDS011;9259;48.194;16.322;2023-11-21T07:15:28;9.50;;;2.43;;
18265;SDS011;9259;48.194;16.322;2023-11-21T07:17:56;11.07;;;2.37;;
18265;SDS011;9259;48.194;16.322;2023-11-21T07:20:24;13.53;;;2.70;;
18265;SDS011;9259;48.194;16.322;2023-11-21T07:22:52;10.30;;;2.33;;
18265;SDS011;9259;48.194;16.322;2023-11-21T07:25:21;6.07;;;1.80;;
18265;SDS011;9259;48.194;16.322;2023-11-21T07:27:49;11.53;;;2.30;;
18265;SDS011;9259;48.194;16.322;2023-11-21T07:30:18;11.20;;;2.13;;
18265;SDS011;9259;48.194;16.322;2023-11-21T07:32:49;14.60;;;2.30;;
18265;SDS011;9259;48.194;16.322;2023-11-21T07:35:17;10.87;;;2.20;;
18265;SDS011;9259;48.194;16.322;2023-11-21T07:37:45;10.73;;;2.40;;
18265;SDS011;9259;48.194;16.322;2023-11-21T07:40:14;11.73;;;2.27;;
18265;SDS011;9259;48.194;16.322;2023-11-21T07:42:42;12.47;;;2.50;;
18265;SDS011;9259;48.194;16.322;2023-11-21T07:45:10;11.50;;;2.50;;
18265;SDS011;9259;48.194;16.322;2023-11-21T07:47:41;13.87;;;2.53;;
18265;SDS011;9259;48.194;16.322;2023-11-21T07:50:11;9.83;;;2.07;;
18265;SDS011;9259;48.194;16.322;2023-11-21T07:52:39;7.47;;;2.30;;
18265;SDS011;9259;48.194;16.322;2023-11-21T07:55:07;8.33;;;2.20;;
18265;SDS011;9259;48.194;16.322;2023-11-21T07:57:35;12.10;;;2.57;;
18265;SDS011;9259;48.194;16.322;2023-11-21T08:00:04;14.73;;;2.23;;
18265;SDS011;9259;48.194;16.322;2023-11-21T08:02:34;10.33;;;2.00;;
18265;SDS011;9259;48.194;16.322;2023-11-21T08:05:03;8.17;;;2.23;;
18265;SDS011;9259;48.194;16.322;2023-11-21T08:07:34;8.43;;;1.83;;
18265;SDS011;9259;48.194;16.322;2023-11-21T08:10:01;6.30;;;1.90;;
18265;SDS011;9259;48.194;16.322;2023-11-21T08:12:30;8.47;;;2.00;;
18265;SDS011;9259;48.194;16.322;2023-11-21T08:14:59;10.67;;;2.77;;
18265;SDS011;9259;48.194;16.322;2023-11-21T08:17:29;9.93;;;2.20;;
18265;SDS011;9259;48.194;16.322;2023-11-21T08:19:58;10.40;;;1.80;;
18265;SDS011;9259;48.194;16.322;2023-11-21T08:22:26;12.53;;;2.43;;
18265;SDS011;9259;48.194;16.322;2023-11-21T08:24:56;7.50;;;2.20;;
18265;SDS011;9259;48.194;16.322;2023-11-21T08:27:24;7.80;;;1.93;;
18265;SDS011;9259;48.194;16.322;2023-11-21T08:29:52;11.47;;;2.20;;
18265;SDS011;9259;48.194;16.322;2023-11-21T08:32:21;12.50;;;2.00;;
18265;SDS011;9259;48.194;16.322;2023-11-21T08:34:49;11.33;;;2.30;;
18265;SDS011;9259;48.194;16.322;2023-11-21T08:37:17;7.97;;;2.30;;
18265;SDS011;9259;48.194;16.322;2023-11-21T08:39:46;9.47;;;2.00;;
18265;SDS011;9259;48.194;16.322;2023-11-21T08:42:16;10.60;;;2.40;;
18265;SDS011;9259;48.194;16.322;2023-11-21T08:44:45;8.47;;;2.23;;
18265;SDS011;9259;48.194;16.322;2023-11-21T08:47:13;13.37;;;2.20;;
18265;SDS011;9259;48.194;16.322;2023-11-21T08:49:41;6.53;;;2.27;;
18265;SDS011;9259;48.194;16.322;2023-11-21T08:52:09;9.70;;;2.70;;
18265;SDS011;9259;48.194;16.322;2023-11-21T08:54:37;13.10;;;2.47;;
18265;SDS011;9259;48.194;16.322;2023-11-21T08:57:07;9.67;;;2.00;;
18265;SDS011;9259;48.194;16.322;2023-11-21T08:59:36;11.30;;;2.47;;
18265;SDS011;9259;48.194;16.322;2023-11-21T09:02:04;7.30;;;1.90;;
18265;SDS011;9259;48.194;16.322;2023-11-21T09:04:33;6.67;;;2.37;;
18265;SDS011;9259;48.194;16.322;2023-11-21T09:07:01;6.60;;;1.97;;
18265;SDS011;9259;48.194;16.322;2023-11-21T09:09:30;9.40;;;1.80;;
18265;SDS011;9259;48.194;16.322;2023-11-21T09:11:58;6.60;;;2.00;;
18265;SDS011;9259;48.194;16.322;2023-11-21T09:14:27;8.40;;;2.27;;
18265;SDS011;9259;48.194;16.322;2023-11-21T09:16:56;8.33;;;2.10;;
18265;SDS011;9259;48.194;16.322;2023-11-21T09:19:24;9.47;;;2.27;;
18265;SDS011;9259;48.194;16.322;2023-11-21T09:21:52;7.10;;;1.77;;
18265;SDS011;9259;48.194;16.322;2023-11-21T09:24:22;8.73;;;1.70;;
18265;SDS011;9259;48.194;16.322;2023-11-21T09:26:51;14.67;;;2.03;;
18265;SDS011;9259;48.194;16.322;2023-11-21T09:29:20;8.67;;;1.47;;
18265;SDS011;9259;48.194;16.322;2023-11-21T09:31:48;5.03;;;1.27;;
18265;SDS011;9259;48.194;16.322;2023-11-21T09:34:18;4.20;;;1.70;;
18265;SDS011;9259;48.194;16.322;2023-11-21T09:36:46;6.20;;;1.40;;
18265;SDS011;9259;48.194;16.322;2023-11-21T09:39:14;5.30;;;1.80;;
18265;SDS011;9259;48.194;16.322;2023-11-21T09:41:44;6.75;;;1.60;;
18265;SDS011;9259;48.194;16.322;2023-11-21T09:44:17;5.93;;;1.30;;
18265;SDS011;9259;48.194;16.322;2023-11-21T09:46:49;3.78;;;1.13;;
18265;SDS011;9259;48.194;16.322;2023-11-21T09:49:22;5.60;;;1.25;;
18265;SDS011;9259;48.194;16.322;2023-11-21T09:51:52;4.68;;;1.48;;
18265;SDS011;9259;48.194;16.322;2023-11-21T09:54:22;5.20;;;1.20;;
18265;SDS011;9259;48.194;16.322;2023-11-21T09:56:52;7.90;;;1.05;;
18265;SDS011;9259;48.194;16.322;2023-11-21T09:59:20;3.23;;;1.20;;
18265;SDS011;9259;48.194;16.322;2023-11-21T10:01:48;5.13;;;1.00;;
18265;SDS011;9259;48.194;16.322;2023-11-21T10:04:17;4.03;;;1.00;;
18265;SDS011;9259;48.194;16.322;2023-11-21T10:06:47;5.13;;;1.17;;
18265;SDS011;9259;48.194;16.322;2023-11-21T10:09:16;3.40;;;1.10;;
18265;SDS011;9259;48.194;16.322;2023-11-21T10:11:46;3.70;;;1.20;;
18265;SDS011;9259;48.194;16.322;2023-11-21T10:14:15;3.27;;;1.30;;
18265;SDS011;9259;48.194;16.322;2023-11-21T10:16:44;5.03;;;1.20;;
18265;SDS011;9259;48.194;16.322;2023-11-21T10:19:13;4.90;;;1.10;;
18265;SDS011;9259;48.194;16.322;2023-11-21T10:21:42;5.93;;;1.00;;
18265;SDS011;9259;48.194;16.322;2023-11-21T10:24:12;3.63;;;1.03;;
18265;SDS011;9259;48.194;16.322;2023-11-21T10:26:41;3.10;;;1.20;;
18265;SDS011;9259;48.194;16.322;2023-11-21T10:29:09;5.03;;;1.10;;
18265;SDS011;9259;48.194;16.322;2023-11-21T10:31:42;6.00;;;1.20;;
18265;SDS011;9259;48.194;16.322;2023-11-21T10:34:14;9.17;;;1.50;;
18265;SDS011;9259;48.194;16.322;2023-11-21T10:36:42;6.28;;;1.10;;
18265;SDS011;9259;48.194;16.322;2023-11-21T10:39:14;6.33;;;1.20;;
18265;SDS011;9259;48.194;16.322;2023-11-21T10:41:44;5.93;;;1.10;;
18265;SDS011;9259;48.194;16.322;2023-11-21T10:44:13;6.88;;;1.17;;
18265;SDS011;9259;48.194;16.322;2023-11-21T10:46:46;5.90;;;1.17;;
18265;SDS011;9259;48.194;16.322;2023-11-21T10:49:16;7.05;;;1.52;;
18265;SDS011;9259;48.194;16.322;2023-11-21T10:51:45;3.63;;;0.95;;
18265;SDS011;9259;48.194;16.322;2023-11-21T10:54:18;5.72;;;1.10;;
18265;SDS011;9259;48.194;16.322;2023-11-21T10:56:48;8.45;;;1.40;;
18265;SDS011;9259;48.194;16.322;2023-11-21T10:59:18;5.20;;;1.10;;
18265;SDS011;9259;48.194;16.322;2023-11-21T11:01:50;4.30;;;0.98;;
18265;SDS011;9259;48.194;16.322;2023-11-21T11:04:19;4.40;;;1.00;;
18265;SDS011;9259;48.194;16.322;2023-11-21T11:06:49;3.30;;;1.10;;
18265;SDS011;9259;48.194;16.322;2023-11-21T11:09:23;4.70;;;1.20;;
18265;SDS011;9259;48.194;16.322;2023-11-21T11:11:51;3.05;;;1.40;;
18265;SDS011;9259;48.194;16.322;2023-11-21T11:14:20;8.70;;;1.40;;
18265;SDS011;9259;48.194;16.322;2023-11-21T11:16:52;4.78;;;1.30;;
18265;SDS011;9259;48.194;16.322;2023-11-21T11:19:22;8.82;;;1.33;;
18265;SDS011;9259;48.194;16.322;2023-11-21T11:21:53;5.83;;;1.17;;
18265;SDS011;9259;48.194;16.322;2023-11-21T11:24:33;2.60;;;1.00;;
18265;SDS011;9259;48.194;16.322;2023-11-21T11:27:15;4.13;;;1.10;;
18265;SDS011;9259;48.194;16.322;2023-11-21T11:29:54;4.10;;;1.03;;
18265;SDS011;9259;48.194;16.322;2023-11-21T11:32:27;7.00;;;1.00;;
18265;SDS011;9259;48.194;16.322;2023-11-21T11:35:04;3.83;;;0.90;;
18265;SDS011;9259;48.194;16.322;2023-11-21T11:37:34;3.67;;;0.80;;
18265;SDS011;9259;48.194;16.322;2023-11-21T11:40:06;2.60;;;0.60;;
18265;SDS011;9259;48.194;16.322;2023-11-21T11:42:35;1.90;;;0.70;;
18265;SDS011;9259;48.194;16.322;2023-11-21T11:45:07;5.95;;;1.10;;
18265;SDS011;9259;48.194;16.322;2023-11-21T11:47:46;4.80;;;0.98;;
18265;SDS011;9259;48.194;16.322;2023-11-21T11:50:15;5.20;;;0.90;;
18265;SDS011;9259;48.194;16.322;2023-11-21T11:52:46;3.33;;;0.93;;
18265;SDS011;9259;48.194;16.322;2023-11-21T11:55:17;3.53;;;0.80;;
18265;SDS011;9259;48.194;16.322;2023-11-21T11:57:47;4.18;;;0.85;;
18265;SDS011;9259;48.194;16.322;2023-11-21T12:00:17;5.32;;;1.00;;
18265;SDS011;9259;48.194;16.322;2023-11-21T12:02:46;3.97;;;0.63;;
18265;SDS011;9259;48.194;16.322;2023-11-21T12:05:15;4.93;;;1.07;;
18265;SDS011;9259;48.194;16.322;2023-11-21T12:07:45;2.37;;;0.83;;
18265;SDS011;9259;48.194;16.322;2023-11-21T12:10:14;3.33;;;0.93;;
18265;SDS011;9259;48.194;16.322;2023-11-21T12:12:49;5.17;;;1.10;;
18265;SDS011;9259;48.194;16.322;2023-11-21T12:15:18;2.37;;;0.97;;
18265;SDS011;9259;48.194;16.322;2023-11-21T12:17:47;5.77;;;1.27;;
18265;SDS011;9259;48.194;16.322;2023-11-21T12:20:17;4.80;;;1.03;;
18265;SDS011;9259;48.194;16.322;2023-11-21T12:22:47;11.47;;;1.47;;
18265;SDS011;9259;48.194;16.322;2023-11-21T12:25:15;2.90;;;1.07;;
18265;SDS011;9259;48.194;16.322;2023-11-21T12:27:45;5.17;;;1.83;;
18265;SDS011;9259;48.194;16.322;2023-11-21T12:30:17;7.20;;;1.63;;
18265;SDS011;9259;48.194;16.322;2023-11-21T12:32:47;5.93;;;1.30;;
18265;SDS011;9259;48.194;16.322;2023-11-21T12:35:17;4.80;;;1.43;;
18265;SDS011;9259;48.194;16.322;2023-11-21T12:37:47;6.40;;;1.70;;
18265;SDS011;9259;48.194;16.322;2023-11-21T12:40:15;3.80;;;1.70;;
18265;SDS011;9259;48.194;16.322;2023-11-21T12:42:44;5.73;;;2.50;;
18265;SDS011;9259;48.194;16.322;2023-11-21T12:45:21;4.80;;;1.90;;
18265;SDS011;9259;48.194;16.322;2023-11-21T12:47:51;8.93;;;2.67;;
18265;SDS011;9259;48.194;16.322;2023-11-21T12:50:22;10.43;;;2.63;;
18265;SDS011;9259;48.194;16.322;2023-11-21T12:52:57;6.83;;;2.60;;
18265;SDS011;9259;48.194;16.322;2023-11-21T12:55:29;8.10;;;2.80;;
18265;SDS011;9259;48.194;16.322;2023-11-21T12:57:58;6.20;;;1.63;;
18265;SDS011;9259;48.194;16.322;2023-11-21T13:00:36;3.80;;;1.50;;
18265;SDS011;9259;48.194;16.322;2023-11-21T13:03:05;7.33;;;1.47;;
18265;SDS011;9259;48.194;16.322;2023-11-21T13:05:35;5.67;;;1.60;;
18265;SDS011;9259;48.194;16.322;2023-11-21T13:08:05;4.10;;;1.20;;
18265;SDS011;9259;48.194;16.322;2023-11-21T13:10:35;8.03;;;1.40;;
18265;SDS011;9259;48.194;16.322;2023-11-21T13:13:04;4.10;;;1.10;;
18265;SDS011;9259;48.194;16.322;2023-11-21T13:15:38;6.10;;;1.73;;
18265;SDS011;9259;48.194;16.322;2023-11-21T13:18:07;3.83;;;1.40;;
18265;SDS011;9259;48.194;16.322;2023-11-21T13:20:36;5.70;;;1.37;;
18265;SDS011;9259;48.194;16.322;2023-11-21T13:23:07;5.03;;;1.60;;
18265;SDS011;9259;48.194;16.322;2023-11-21T13:25:37;5.90;;;1.23;;
18265;SDS011;9259;48.194;16.322;2023-11-21T13:28:07;3.57;;;1.20;;
18265;SDS011;9259;48.194;16.322;2023-11-21T13:30:37;4.77;;;1.50;;
18265;SDS011;9259;48.194;16.322;2023-11-21T13:33:05;4.33;;;1.30;;
18265;SDS011;9259;48.194;16.322;2023-11-21T13:35:35;4.40;;;1.23;;
18265;SDS011;9259;48.194;16.322;2023-11-21T13:38:08;4.40;;;1.90;;
18265;SDS011;9259;48.194;16.322;2023-11-21T13:40:37;6.77;;;1.53;;
18265;SDS011;9259;48.194;16.322;2023-11-21T13:43:08;7.73;;;2.00;;
18265;SDS011;9259;48.194;16.322;2023-11-21T13:45:38;7.87;;;1.83;;
18265;SDS011;9259;48.194;16.322;2023-11-21T13:48:07;7.93;;;2.30;;
18265;SDS011;9259;48.194;16.322;2023-11-21T13:50:37;8.97;;;2.23;;
18265;SDS011;9259;48.194;16.322;2023-11-21T13:53:10;4.60;;;1.77;;
18265;SDS011;9259;48.194;16.322;2023-11-21T13:55:43;11.33;;;2.20;;
18265;SDS011;9259;48.194;16.322;2023-11-21T13:58:13;7.87;;;2.40;;
18265;SDS011;9259;48.194;16.322;2023-11-21T14:00:49;7.50;;;2.53;;
18265;SDS011;9259;48.194;16.322;2023-11-21T14:03:22;6.17;;;1.70;;
18265;SDS011;9259;48.194;16.322;2023-11-21T14:05:58;6.97;;;2.20;;
18265;SDS011;9259;48.194;16.322;2023-11-21T14:08:33;8.63;;;2.77;;
18265;SDS011;9259;48.194;16.322;2023-11-21T14:11:01;5.93;;;2.53;;
18265;SDS011;9259;48.194;16.322;2023-11-21T14:13:32;10.03;;;3.60;;
18265;SDS011;9259;48.194;16.322;2023-11-21T14:16:01;11.70;;;3.80;;
18265;SDS011;9259;48.194;16.322;2023-11-21T14:18:32;9.93;;;2.80;;
18265;SDS011;9259;48.194;16.322;2023-11-21T14:21:04;8.47;;;2.97;;
18265;SDS011;9259;48.194;16.322;2023-11-21T14:23:34;8.93;;;2.30;;
18265;SDS011;9259;48.194;16.322;2023-11-21T14:26:04;4.97;;;1.90;;
18265;SDS011;9259;48.194;16.322;2023-11-21T14:28:33;3.50;;;1.80;;
18265;SDS011;9259;48.194;16.322;2023-11-21T14:31:03;5.23;;;2.00;;
18265;SDS011;9259;48.194;16.322;2023-11-21T14:33:31;4.50;;;1.87;;
18265;SDS011;9259;48.194;16.322;2023-11-21T14:36:00;5.27;;;2.17;;
18265;SDS011;9259;48.194;16.322;2023-11-21T14:38:28;5.17;;;2.03;;
18265;SDS011;9259;48.194;16.322;2023-11-21T14:40:56;6.67;;;2.27;;
18265;SDS011;9259;48.194;16.322;2023-11-21T14:43:24;3.07;;;1.90;;
18265;SDS011;9259;48.194;16.322;2023-11-21T14:45:55;6.63;;;2.60;;
18265;SDS011;9259;48.194;16.322;2023-11-21T14:48:26;5.37;;;2.23;;
18265;SDS011;9259;48.194;16.322;2023-11-21T14:51:08;13.27;;;3.33;;
18265;SDS011;9259;48.194;16.322;2023-11-21T14:53:59;10.33;;;2.90;;
18265;SDS011;9259;48.194;16.322;2023-11-21T14:56:32;7.27;;;3.23;;
18265;SDS011;9259;48.194;16.322;2023-11-21T14:59:00;7.23;;;3.00;;